Ne plus se rappeler de moi
Bonjour et Bienvenue
Pas de session ouverte
Mercredi 03/09/2014
d:\inetpub\wwwroot\acrroussillon\reservation\ACR\IMAGES\IMG1.JPGd:\inetpub\wwwroot\acrroussillon\reservation\ACR\IMAGES\IMG2.JPGd:\inetpub\wwwroot\acrroussillon\reservation\ACR/IMAGES/IMG3.jpg
00:00:00
Horaires du 03/09/2014 (Données à titre indicatif seulement).
Lever du soleil : 07h15 - Coucher du soleil : 20h20 (Heure Locale)
Jour aéronautique : 06h45 - Nuit aéronautique : 20h50 (Heure Locale)
Planning des réservations des aéronefs
Planning des réservations des aéronefs
2014/09/03 06:30
LFMP 030630Z VRB02KT CAVOK 17/11 Q1013 NOSIG
Planning des réservations des aéronefs
2014/09/03 06:15
TAF LFMP 030500Z 0306/0406 VRB03KT CAVOK
TEMPO 0309/0317 09010KT
Informations sur les aéronefs
Informations sur les aéronefs
Modifications des Types de vols
ATTENTION PLUS DE PAIEMENT EN LIGNE DEPUIS LA MAISON
AEROCLUB DU ROUSSILLON. AVENUE MAURICE BELLONTE. 66000 PERPIGNAN. Tel : 04.68.73.48.18 Fax : 09.55.16.18.97 Courriel : aeroclub-roussillon@hotmail.fr
 METAR / TAF
LIENS UTILES
envoyer un e-mail
d:\inetpub\wwwroot\acrroussillon\reservation\ACR/IMAGES/Logo.jpg
Identifiez vous pour interaction
d:\inetpub\wwwroot\acrroussillon\reservation\ACR/IMAGES/Logo.jpg
Aéro-Club du Roussillon